createdAt,value
2022-11-03T00:02:29.544Z,1.30
2022-11-03T00:05:24.076Z,1.30
2022-11-03T00:07:54.061Z,1.30
2022-11-03T00:10:25.114Z,1.20
2022-11-03T00:13:05.888Z,1.20
2022-11-03T00:15:53.017Z,1.20
2022-11-03T00:18:41.966Z,1.20
2022-11-03T00:21:18.800Z,1.30
2022-11-03T00:24:05.151Z,1.30
2022-11-03T00:26:35.503Z,1.30
2022-11-03T00:29:15.510Z,1.30
2022-11-03T00:31:45.674Z,1.30
2022-11-03T00:34:19.954Z,1.30
2022-11-03T00:37:07.423Z,1.20
2022-11-03T00:40:11.267Z,1.20
2022-11-03T00:42:43.800Z,1.10
2022-11-03T00:45:22.172Z,1.10
2022-11-03T00:48:04.558Z,1.10
2022-11-03T00:50:39.204Z,1.10
2022-11-03T00:53:10.533Z,1.10
2022-11-03T00:55:55.167Z,1.00
2022-11-03T00:58:30.560Z,1.10
2022-11-03T01:01:17.613Z,1.10
2022-11-03T01:04:09.428Z,1.10
2022-11-03T01:07:15.765Z,1.10
2022-11-03T01:10:05.050Z,1.10
2022-11-03T01:12:35.187Z,1.10
2022-11-03T01:15:08.651Z,1.00
2022-11-03T01:18:25.273Z,1.00
2022-11-03T01:21:21.592Z,1.00
2022-11-03T01:24:02.596Z,0.90
2022-11-03T01:26:50.583Z,0.90
2022-11-03T01:32:06.646Z,0.80
2022-11-03T01:34:39.014Z,0.80
2022-11-03T01:37:18.770Z,0.80
2022-11-03T01:43:00.385Z,0.80
2022-11-03T01:46:03.023Z,0.80
2022-11-03T01:48:46.306Z,0.80
2022-11-03T01:51:18.177Z,0.80
2022-11-03T01:53:53.798Z,0.80
2022-11-03T01:56:27.577Z,0.80
2022-11-03T01:59:14.457Z,0.80
2022-11-03T02:01:47.367Z,0.90
2022-11-03T02:04:20.958Z,0.90
2022-11-03T02:06:57.124Z,0.90
2022-11-03T02:09:48.917Z,0.90
2022-11-03T02:12:30.269Z,0.90
2022-11-03T02:15:06.051Z,1.00
2022-11-03T02:17:40.861Z,1.00
2022-11-03T02:20:17.955Z,1.00
2022-11-03T02:23:43.675Z,1.10
2022-11-03T02:26:22.655Z,1.20
2022-11-03T02:29:11.635Z,1.20
2022-11-03T02:32:04.623Z,1.20
2022-11-03T02:35:14.593Z,1.20
2022-11-03T02:41:27.284Z,1.20
2022-11-03T02:43:59.612Z,1.30
2022-11-03T02:46:35.642Z,1.20
2022-11-03T02:49:13.478Z,1.30
2022-11-03T02:51:59.245Z,1.30
2022-11-03T02:58:00.886Z,1.30
2022-11-03T03:00:34.846Z,1.20
2022-11-03T03:03:32.225Z,1.20
2022-11-03T03:06:09.443Z,1.10
2022-11-03T03:09:00.088Z,1.10
2022-11-03T03:11:41.219Z,1.00
2022-11-03T03:14:18.484Z,0.90
2022-11-03T03:17:00.532Z,0.80
2022-11-03T03:20:03.675Z,0.80
2022-11-03T03:22:42.004Z,0.80
2022-11-03T03:25:57.921Z,0.80
2022-11-03T03:28:38.530Z,0.80
2022-11-03T03:31:10.862Z,0.70
2022-11-03T03:33:46.586Z,0.60
2022-11-03T03:36:31.696Z,0.60
2022-11-03T03:39:28.381Z,0.40
2022-11-03T03:41:59.862Z,0.40
2022-11-03T03:44:34.252Z,0.30
2022-11-03T03:47:11.849Z,0.30
2022-11-03T03:49:45.453Z,0.30
2022-11-03T03:52:14.452Z,0.20
2022-11-03T03:55:00.032Z,0.20
2022-11-03T03:57:34.021Z,0.20
2022-11-03T04:00:05.404Z,0.20
2022-11-03T04:02:40.285Z,0.20
2022-11-03T04:05:42.411Z,0.10
2022-11-03T07:18:30.816Z,5.30
2022-11-03T08:03:44.194Z,9.20
2022-11-03T08:06:14.585Z,9.50
2022-11-03T08:08:48.329Z,9.60
2022-11-03T08:11:16.547Z,10.00
2022-11-03T08:13:44.842Z,10.30
2022-11-03T08:16:14.984Z,10.30
2022-11-03T08:18:45.415Z,10.40
2022-11-03T08:21:17.458Z,10.50
2022-11-03T08:23:47.613Z,10.60
2022-11-03T08:26:16.553Z,10.60
2022-11-03T08:28:44.770Z,10.60
2022-11-03T08:31:13.526Z,10.90
2022-11-03T08:33:42.300Z,11.20
2022-11-03T08:36:11.949Z,11.50
2022-11-03T08:38:40.093Z,11.70
2022-11-03T08:41:08.378Z,12.00
2022-11-03T08:43:36.969Z,12.00
2022-11-03T08:46:13.007Z,12.00
2022-11-03T08:48:45.788Z,11.90
2022-11-03T08:51:19.528Z,11.60
2022-11-03T08:53:50.843Z,11.20
2022-11-03T08:56:32.807Z,10.70
2022-11-03T09:01:57.871Z,10.20
2022-11-03T09:04:27.581Z,10.10
2022-11-03T09:06:58.471Z,10.00
2022-11-03T09:12:18.222Z,10.00
2022-11-03T09:14:50.669Z,10.00
2022-11-03T09:17:20.367Z,10.20
2022-11-03T09:19:52.390Z,10.20
2022-11-03T09:22:23.818Z,10.30
2022-11-03T09:24:54.400Z,10.30
2022-11-03T09:27:23.819Z,10.40
2022-11-03T09:30:13.906Z,10.40
2022-11-03T09:35:44.669Z,10.30
2022-11-03T09:38:31.155Z,10.30
2022-11-03T09:44:52.824Z,10.20
2022-11-03T09:47:27.673Z,10.20
2022-11-03T09:49:59.112Z,10.30
2022-11-03T09:52:27.989Z,10.40
2022-11-03T09:55:27.227Z,10.40
2022-11-03T09:58:10.025Z,10.40
2022-11-03T10:00:42.670Z,10.50
2022-11-03T10:03:14.554Z,10.50
2022-11-03T10:06:01.508Z,10.70
2022-11-03T10:08:34.324Z,10.70
2022-11-03T10:11:19.411Z,10.70
2022-11-03T10:14:09.230Z,10.70
2022-11-03T10:16:39.100Z,10.90
2022-11-03T10:19:12.046Z,10.90
2022-11-03T10:21:42.636Z,11.00
2022-11-03T10:24:12.902Z,11.00
2022-11-03T10:26:50.706Z,11.00
2022-11-03T10:29:24.722Z,11.10
2022-11-03T10:31:55.195Z,11.10
2022-11-03T10:34:30.318Z,11.20
2022-11-03T10:37:17.779Z,11.20
2022-11-03T10:39:51.255Z,11.30
2022-11-03T10:42:23.876Z,11.30
2022-11-03T10:45:11.145Z,11.30
2022-11-03T10:47:49.235Z,11.40
2022-11-03T10:53:21.303Z,11.60
2022-11-03T10:55:54.125Z,11.60
2022-11-03T10:58:26.655Z,11.70
2022-11-03T11:00:55.521Z,11.80
2022-11-03T11:03:24.593Z,11.80
2022-11-03T11:05:55.043Z,11.80
2022-11-03T11:08:25.556Z,11.80
2022-11-03T11:10:56.439Z,11.80
2022-11-03T11:13:35.785Z,11.80
2022-11-03T11:16:05.046Z,11.80
2022-11-03T11:19:10.405Z,11.80
2022-11-03T11:22:02.794Z,11.90
2022-11-03T11:25:09.177Z,12.00
2022-11-03T11:28:02.119Z,12.00
2022-11-03T11:31:29.707Z,12.10
2022-11-03T11:34:46.620Z,12.10
2022-11-03T11:37:37.710Z,12.20
2022-11-03T11:40:32.919Z,12.20
2022-11-03T11:43:59.822Z,12.20
2022-11-03T11:46:42.597Z,12.20
2022-11-03T11:49:20.804Z,12.10
2022-11-03T11:51:49.240Z,12.10
2022-11-03T11:54:21.982Z,12.20
2022-11-03T11:56:54.660Z,12.30
2022-11-03T11:59:33.382Z,12.50
2022-11-03T12:02:04.429Z,12.50
2022-11-03T12:08:00.750Z,12.50
2022-11-03T12:10:31.513Z,12.50
2022-11-03T12:13:01.828Z,12.50
2022-11-03T12:15:49.710Z,12.60
2022-11-03T12:18:40.675Z,12.70
2022-11-03T12:21:14.173Z,12.80
2022-11-03T12:23:44.362Z,12.80
2022-11-03T12:26:19.483Z,12.80
2022-11-03T12:28:48.427Z,12.90
2022-11-03T12:31:16.772Z,12.90
2022-11-03T12:33:46.699Z,12.80
2022-11-03T12:36:15.227Z,12.90
2022-11-03T12:38:43.878Z,12.90
2022-11-03T12:41:27.383Z,12.80
2022-11-03T12:43:56.433Z,12.80
2022-11-03T12:46:24.962Z,12.80
2022-11-03T12:48:54.912Z,12.80
2022-11-03T12:51:25.302Z,12.80
2022-11-03T12:53:53.751Z,12.70
2022-11-03T12:56:21.963Z,12.70
2022-11-03T12:58:50.392Z,12.70
2022-11-03T13:01:18.880Z,12.70
2022-11-03T13:03:47.269Z,12.60
2022-11-03T13:06:45.774Z,12.50
2022-11-03T13:09:14.370Z,12.40
2022-11-03T13:12:00.041Z,12.30
2022-11-03T13:14:28.606Z,12.30
2022-11-03T13:16:57.199Z,12.30
2022-11-03T13:19:25.379Z,12.30
2022-11-03T13:21:55.296Z,12.30
2022-11-03T13:24:24.360Z,12.20
2022-11-03T13:26:53.104Z,12.20
2022-11-03T13:29:31.163Z,12.20
2022-11-03T13:32:06.410Z,12.20
2022-11-03T13:34:41.169Z,12.20
2022-11-03T13:37:22.881Z,12.20
2022-11-03T13:39:58.822Z,12.10
2022-11-03T13:42:29.856Z,12.10
2022-11-03T13:45:06.350Z,12.10
2022-11-03T13:48:22.114Z,12.00
2022-11-03T13:50:24.688Z,11.90
2022-11-03T13:52:55.478Z,11.90
2022-11-03T14:01:00.246Z,11.80
2022-11-03T14:06:19.244Z,11.90
2022-11-03T14:08:51.102Z,11.80
2022-11-03T14:11:36.798Z,11.80
2022-11-03T14:14:05.166Z,11.90
2022-11-03T14:16:33.474Z,11.90
2022-11-03T14:19:02.030Z,11.80
2022-11-03T14:21:30.181Z,11.80
2022-11-03T14:23:59.785Z,11.70
2022-11-03T14:26:41.788Z,11.70
2022-11-03T14:29:10.972Z,11.60
2022-11-03T14:31:39.173Z,11.60
2022-11-03T14:34:07.375Z,11.70
2022-11-03T14:36:35.686Z,11.60
2022-11-03T14:39:05.500Z,11.50
2022-11-03T14:41:50.836Z,11.50
2022-11-03T14:44:19.141Z,11.40
2022-11-03T14:46:47.229Z,11.30
2022-11-03T14:49:15.750Z,11.20
2022-11-03T14:51:44.339Z,11.10
2022-11-03T14:54:14.096Z,11.00
2022-11-03T14:56:42.241Z,10.90
2022-11-03T14:59:10.361Z,10.80
2022-11-03T15:01:38.859Z,10.70
2022-11-03T15:04:08.048Z,10.70
2022-11-03T15:06:36.427Z,10.70
2022-11-03T15:09:05.109Z,10.70
2022-11-03T15:11:35.269Z,10.60
2022-11-03T15:14:03.867Z,10.40
2022-11-03T15:16:31.987Z,10.20
2022-11-03T15:19:00.391Z,10.10
2022-11-03T15:21:29.318Z,9.90
2022-11-03T15:26:53.101Z,9.50
2022-11-03T15:29:24.204Z,9.30
2022-11-03T15:31:52.429Z,9.30
2022-11-03T15:34:20.690Z,9.30
2022-11-03T15:36:48.789Z,9.10
2022-11-03T15:39:18.000Z,9.10
2022-11-03T15:41:47.828Z,9.00
2022-11-03T15:44:15.948Z,8.90
2022-11-03T15:46:44.162Z,8.80
2022-11-03T15:49:14.526Z,8.70
2022-11-03T15:51:42.728Z,8.70
2022-11-03T15:54:10.964Z,8.70
2022-11-03T15:56:42.534Z,8.70
2022-11-03T15:59:12.288Z,8.70
2022-11-03T16:01:40.998Z,8.60
2022-11-03T16:04:09.413Z,8.40
2022-11-03T16:07:06.375Z,8.30
2022-11-03T16:09:25.756Z,8.20
2022-11-03T16:11:54.311Z,8.10
2022-11-03T16:14:24.122Z,7.90
2022-11-03T16:16:55.522Z,7.70
2022-11-03T16:19:23.728Z,7.60
2022-11-03T16:21:52.076Z,7.50
2022-11-03T16:24:20.374Z,7.40
2022-11-03T16:26:50.779Z,7.40
2022-11-03T16:29:19.052Z,7.40
2022-11-03T16:31:50.378Z,7.30
2022-11-03T16:34:18.615Z,7.30
2022-11-03T16:36:47.063Z,7.30
2022-11-03T16:39:15.218Z,7.30
2022-11-03T16:41:49.966Z,7.40
2022-11-03T16:44:18.104Z,7.40
2022-11-03T16:46:46.856Z,7.60
2022-11-03T16:49:16.604Z,7.80
2022-11-03T16:51:53.679Z,8.10
2022-11-03T16:54:22.847Z,8.40
2022-11-03T16:56:54.717Z,8.60
2022-11-03T16:59:25.762Z,8.70
2022-11-03T17:01:54.521Z,8.70
2022-11-03T17:04:24.185Z,8.80
2022-11-03T17:06:53.477Z,8.90
2022-11-03T17:09:21.823Z,9.00
2022-11-03T17:11:50.357Z,9.20
2022-11-03T17:14:18.473Z,9.20
2022-11-03T17:16:48.578Z,9.30
2022-11-03T17:19:17.045Z,9.40
2022-11-03T17:21:47.501Z,9.50
2022-11-03T17:24:15.612Z,9.70
2022-11-03T17:26:54.110Z,9.80
2022-11-03T17:29:25.806Z,10.00
2022-11-03T17:31:54.208Z,10.00
2022-11-03T17:34:25.186Z,10.00
2022-11-03T17:36:55.504Z,10.10
2022-11-03T17:39:29.760Z,10.20
2022-11-03T17:42:11.807Z,10.20
2022-11-03T17:44:40.016Z,10.20
2022-11-03T17:47:10.568Z,10.20
2022-11-03T17:49:39.099Z,10.20
2022-11-03T17:52:19.119Z,10.30
2022-11-03T17:54:50.801Z,10.30
2022-11-03T17:57:22.751Z,10.30
2022-11-03T17:59:55.098Z,10.40
2022-11-03T18:02:26.077Z,10.40
2022-11-03T18:05:00.914Z,10.40
2022-11-03T18:07:31.015Z,10.30
2022-11-03T18:09:59.727Z,10.40
2022-11-03T18:12:53.735Z,10.40
2022-11-03T18:15:28.112Z,10.40
2022-11-03T18:17:56.673Z,10.50
2022-11-03T18:20:28.457Z,10.50
2022-11-03T18:23:11.923Z,10.50
2022-11-03T18:25:40.578Z,10.60
2022-11-03T18:28:12.390Z,10.60
2022-11-03T18:30:41.623Z,10.60
2022-11-03T18:33:33.213Z,10.60
2022-11-03T18:36:08.302Z,10.50
2022-11-03T18:38:41.464Z,10.50
2022-11-03T18:41:28.841Z,10.50
2022-11-03T18:44:02.971Z,10.50
2022-11-03T18:46:31.718Z,10.50
2022-11-03T18:48:59.962Z,10.50
2022-11-03T18:51:31.415Z,10.50
2022-11-03T18:54:02.228Z,10.50
2022-11-03T18:56:43.097Z,10.50
2022-11-03T18:59:23.207Z,10.50
2022-11-03T19:01:52.071Z,10.50
2022-11-03T19:04:24.856Z,10.40
2022-11-03T19:06:57.649Z,10.40
2022-11-03T19:09:28.466Z,10.30
2022-11-03T19:12:11.790Z,10.40
2022-11-03T19:14:48.591Z,10.40
2022-11-03T19:17:44.022Z,10.40
2022-11-03T19:20:26.365Z,10.30
2022-11-03T19:23:09.474Z,10.30
2022-11-03T19:25:48.068Z,10.30
2022-11-03T19:28:51.808Z,10.40
2022-11-03T19:31:28.208Z,10.40
2022-11-03T19:34:00.414Z,10.40
2022-11-03T19:36:35.309Z,10.30
2022-11-03T19:39:09.706Z,10.40
2022-11-03T19:42:11.190Z,10.40
2022-11-03T19:44:57.014Z,10.40
2022-11-03T19:47:31.652Z,10.40
2022-11-03T19:50:09.762Z,10.30
2022-11-03T19:52:41.643Z,10.20
2022-11-03T19:55:19.165Z,10.20
2022-11-03T19:57:49.044Z,10.20
2022-11-03T20:00:35.675Z,10.20
2022-11-03T20:03:05.190Z,10.20
2022-11-03T20:05:33.958Z,10.10
2022-11-03T20:08:07.593Z,10.10
2022-11-03T20:10:36.913Z,10.10
2022-11-03T20:13:08.648Z,10.10
2022-11-03T20:15:39.463Z,10.10
2022-11-03T20:18:12.650Z,10.20
2022-11-03T20:20:43.791Z,10.20
2022-11-03T20:23:21.154Z,10.20
2022-11-03T20:25:50.157Z,10.20
2022-11-03T20:28:28.893Z,10.20
2022-11-03T20:31:00.379Z,10.20
2022-11-03T20:33:29.440Z,10.20
2022-11-03T20:35:58.494Z,10.30
2022-11-03T20:38:30.268Z,10.30
2022-11-03T20:40:59.819Z,10.30
2022-11-03T20:43:36.691Z,10.40
2022-11-03T20:46:12.265Z,10.30
2022-11-03T20:48:40.571Z,10.40
2022-11-03T20:51:14.380Z,10.40
2022-11-03T20:53:43.282Z,10.40
2022-11-03T20:56:19.672Z,10.40
2022-11-03T20:58:50.087Z,10.40
2022-11-03T21:01:27.958Z,10.40
2022-11-03T21:04:00.540Z,10.40
2022-11-03T21:06:30.362Z,10.40
2022-11-03T21:08:59.860Z,10.50
2022-11-03T21:11:31.290Z,10.50
2022-11-03T21:14:06.398Z,10.50
2022-11-03T21:16:52.467Z,10.50
2022-11-03T21:19:43.037Z,10.40
2022-11-03T21:22:45.762Z,10.50
2022-11-03T21:25:10.332Z,10.50
2022-11-03T21:27:41.748Z,10.50
2022-11-03T21:30:14.615Z,10.40
2022-11-03T21:32:43.232Z,10.40
2022-11-03T21:35:17.006Z,10.40
2022-11-03T21:37:45.530Z,10.40
2022-11-03T21:40:16.163Z,10.40
2022-11-03T21:42:59.404Z,10.40
2022-11-03T21:46:26.034Z,10.40
2022-11-03T21:49:40.909Z,10.40
2022-11-03T21:52:10.016Z,10.40
2022-11-03T21:54:38.684Z,10.40
2022-11-03T21:57:08.377Z,10.40
2022-11-03T21:59:37.907Z,10.30
2022-11-03T22:02:10.599Z,10.40
2022-11-03T22:04:40.799Z,10.30
2022-11-03T22:07:10.036Z,10.30
2022-11-03T22:09:38.784Z,10.30
2022-11-03T22:12:10.570Z,10.30
2022-11-03T22:17:39.108Z,10.40
2022-11-03T22:20:29.323Z,10.40
2022-11-03T22:23:34.052Z,10.40
2022-11-03T22:26:31.619Z,10.40
2022-11-03T22:29:18.960Z,10.40
2022-11-03T22:31:51.811Z,10.40
2022-11-03T22:34:40.266Z,10.30
2022-11-03T22:37:13.322Z,10.30
2022-11-03T22:39:59.328Z,10.30
2022-11-03T22:42:50.135Z,10.30
2022-11-03T22:46:08.506Z,10.40
2022-11-03T22:48:59.946Z,10.40
2022-11-03T22:51:28.586Z,10.40
2022-11-03T22:54:15.318Z,10.30
2022-11-03T22:56:54.367Z,10.30
2022-11-03T22:59:25.791Z,10.30
2022-11-03T23:01:54.233Z,10.30
2022-11-03T23:04:22.721Z,10.30
2022-11-03T23:06:50.944Z,10.30
2022-11-03T23:09:20.545Z,10.20
2022-11-03T23:11:49.240Z,10.30
2022-11-03T23:14:19.404Z,10.30
2022-11-03T23:16:47.658Z,10.30
2022-11-03T23:19:45.770Z,10.30
2022-11-03T23:22:14.223Z,10.30
2022-11-03T23:25:15.480Z,10.40
2022-11-03T23:27:44.385Z,10.40
2022-11-03T23:30:19.880Z,10.30
2022-11-03T23:33:04.831Z,10.40
2022-11-03T23:35:40.236Z,10.40
2022-11-03T23:38:09.617Z,10.30
2022-11-03T23:40:40.205Z,10.30
2022-11-03T23:43:08.880Z,10.30
2022-11-03T23:45:57.873Z,10.30
2022-11-03T23:48:46.784Z,10.30
2022-11-03T23:51:17.984Z,10.30
2022-11-03T23:53:48.312Z,10.20
2022-11-03T23:56:38.485Z,10.20
